»·PEaware :: N569FL KSNA-KAVX

N569FL :: KSNA-KAVX

FLIGHT INFORMATION

Flight Status: Arrived
Operator: Privately registered:
United States
More flights under this callsign
Pilot: John M. (9732)
Aircraft: PIPER PA-28 CHEROKEE ARCHER
(P28A)
More flights by this aircraft type
Origin: KSNA John Wayne-Orange Co
United States
Destination: KAVX Catalina
United States
More flights between these airports :: More routes between these airports
Route: +SLI V21 SXC
File this flight plan on PilotEdge
Remarks: I-7 rating
Altitude:
(Current/Filed)
4,000ft
Speed:
(Current/Filed)
140kts
Departed: 12-Dec-17 08:30 PM
Arrived: 12-Dec-17 09:01 PM
Distance/Time
Traveled:
32nm/0:31
Distance/Time
To Go:
Arrived

Flight Plot

Page will automatically refresh every two minutes.


Map Options




Map Legend


Flown Route
Filed Route
Departure Airport
Arrival Airport
Navaid (VOR, NDB)
Fix

Horizontal Profiles

Position Reports

Time Latitude Longitude Heading Altitude Ground
Speed
12-Dec-17 20:09 33.674984 -117.871503 219 59ft 0kts
12-Dec-17 20:10 33.674984 -117.871503 219 59ft 0kts
12-Dec-17 20:11 33.674984 -117.871503 219 59ft 0kts
12-Dec-17 20:11 33.674984 -117.871503 219 59ft 0kts
12-Dec-17 20:12 33.674984 -117.871503 219 59ft 0kts
12-Dec-17 20:14 33.674984 -117.871503 219 59ft 0kts
12-Dec-17 20:14 33.674984 -117.871503 219 59ft 0kts
12-Dec-17 20:15 33.674981 -117.871506 219 59ft 0kts
12-Dec-17 20:16 33.674978 -117.871509 219 59ft 0kts
12-Dec-17 20:17 33.674975 -117.871512 219 59ft 0kts
12-Dec-17 20:18 33.674969 -117.871518 219 59ft 0kts
12-Dec-17 20:19 33.674963 -117.871524 219 59ft 0kts
12-Dec-17 20:20 33.674956 -117.871531 219 59ft 0kts
12-Dec-17 20:21 33.674952 -117.871535 219 59ft 0kts
12-Dec-17 20:22 33.674949 -117.871538 219 59ft 0kts
12-Dec-17 20:23 33.674946 -117.871541 219 59ft 0kts
12-Dec-17 20:24 33.674943 -117.871544 219 59ft 0kts
12-Dec-17 20:25 33.674940 -117.871547 219 59ft 0kts
12-Dec-17 20:26 33.674937 -117.871550 219 59ft 0kts
12-Dec-17 20:27 33.674934 -117.871553 219 59ft 0kts
12-Dec-17 20:28 33.674931 -117.871556 219 59ft 0kts
12-Dec-17 20:29 33.674929 -117.871559 219 59ft 0kts
12-Dec-17 20:30 33.674670 -117.871215 69 59ft 5kts
12-Dec-17 20:31 33.676892 -117.869653 27 59ft 12kts
12-Dec-17 20:32 33.680347 -117.867515 27 59ft 15kts
12-Dec-17 20:33 33.681021 -117.866882 112 59ft 0kts
12-Dec-17 20:34 33.680660 -117.866045 127 59ft 8kts
12-Dec-17 20:35 33.667128 -117.875231 213 505ft 79kts
12-Dec-17 20:36 33.652925 -117.897650 232 1304ft 86kts
12-Dec-17 20:37 33.637785 -117.919704 235 2072ft 87kts
12-Dec-17 20:38 33.621907 -117.942419 232 2784ft 88kts
12-Dec-17 20:39 33.605803 -117.965744 212 3395ft 96kts
12-Dec-17 20:40 33.582885 -117.983081 212 3933ft 105kts
12-Dec-17 20:41 33.556347 -118.003662 212 4014ft 117kts
12-Dec-17 20:42 33.528965 -118.024674 212 4021ft 118kts
12-Dec-17 20:43 33.501123 -118.046238 213 4030ft 118kts
12-Dec-17 20:44 33.473340 -118.067721 212 4034ft 119kts
12-Dec-17 20:45 33.445542 -118.089249 212 4039ft 119kts
12-Dec-17 20:46 33.417686 -118.110890 212 4044ft 119kts
12-Dec-17 20:47 33.389900 -118.132386 212 4052ft 119kts
12-Dec-17 20:48 33.362109 -118.153855 212 4056ft 119kts
12-Dec-17 20:49 33.337684 -118.178983 265 4041ft 118kts
12-Dec-17 20:50 33.342101 -118.216715 281 4062ft 116kts
12-Dec-17 20:51 33.346416 -118.255007 279 4066ft 116kts
12-Dec-17 20:52 33.351795 -118.293220 281 4071ft 116kts
12-Dec-17 20:54 33.357117 -118.331344 281 4074ft 116kts
12-Dec-17 20:55 33.363645 -118.369341 284 4075ft 117kts
12-Dec-17 20:56 33.370382 -118.407739 284 4078ft 117kts
12-Dec-17 20:57 33.389065 -118.430655 9 4071ft 108kts
12-Dec-17 20:58 33.418088 -118.421890 18 4078ft 107kts
12-Dec-17 20:59 33.446824 -118.411432 19 4078ft 108kts
12-Dec-17 21:00 33.475161 -118.411473 319 4066ft 114kts
12-Dec-17 21:01 33.499457 -118.434733 1 4054ft 110kts
12-Dec-17 21:02 33.501064 -118.408740 138 4059ft 113kts
12-Dec-17 21:03 33.469412 -118.406241 183 3656ft 114kts
12-Dec-17 21:04 33.440306 -118.406494 154 2808ft 98kts
12-Dec-17 21:05 33.418942 -118.400709 177 2200ft 72kts
12-Dec-17 21:06 33.405349 -118.415255 239 1605ft 51kts
12-Dec-17 21:07 33.402427 -118.419856 155 1605ft 7kts
12-Dec-17 21:08 33.403302 -118.417674 85 1605ft 1kts
12-Dec-17 21:09 33.403528 -118.415536 77 1605ft 5kts
12-Dec-17 21:10 33.337634 -118.179711 267 4041ft 119kts
12-Dec-17 21:11 33.403686 -118.415086 43 1605ft 0kts
12-Dec-17 21:12 33.403686 -118.415086 43 1605ft 0kts
12-Dec-17 21:13 33.403686 -118.415086 43 1605ft 0kts
12-Dec-17 21:14 33.403686 -118.415086 43 1605ft 0kts
12-Dec-17 21:15 33.403686 -118.415086 43 1605ft 0kts
12-Dec-17 21:16 33.403686 -118.415086 43 1605ft 0kts
12-Dec-17 21:17 33.403686 -118.415086 43 1605ft 0kts
12-Dec-17 21:18 33.403686 -118.415086 43 1606ft 0kts
12-Dec-17 21:19 33.403686 -118.415086 43 1606ft 0kts
12-Dec-17 21:20 33.403686 -118.415085 43 1606ft 1kts

Navigation Log

Ident Type
1. KSNA Airport
2. SLI Navaid
3. SXC Navaid
4. KAVX Airport